createdAt,value
2022-07-26T00:09:48.364Z,4.40
2022-07-26T00:19:55.923Z,4.00
2022-07-26T00:30:03.048Z,5.00
2022-07-26T00:40:12.455Z,3.90
2022-07-26T00:50:20.978Z,4.10
2022-07-26T01:00:28.037Z,4.00
2022-07-26T01:10:34.140Z,3.90
2022-07-26T01:20:40.646Z,3.60
2022-07-26T01:30:47.767Z,3.40
2022-07-26T01:40:54.767Z,3.70
2022-07-26T01:51:02.374Z,3.60
2022-07-26T02:01:10.083Z,3.70
2022-07-26T02:11:17.278Z,3.80
2022-07-26T02:21:24.385Z,4.30
2022-07-26T02:31:32.691Z,4.30
2022-07-26T02:51:46.355Z,4.40
2022-07-26T03:01:53.521Z,4.80
2022-07-26T03:12:00.943Z,5.90
2022-07-26T03:22:08.147Z,5.20
2022-07-26T03:32:15.207Z,5.60
2022-07-26T03:42:22.286Z,5.40
2022-07-26T03:52:29.337Z,5.80
2022-07-26T04:02:36.496Z,5.50
2022-07-26T04:12:43.767Z,6.20
2022-07-26T04:22:51.066Z,6.30
2022-07-26T04:32:58.467Z,5.40
2022-07-26T04:43:05.861Z,5.60
2022-07-26T04:53:16.831Z,6.90
2022-07-26T05:13:29.570Z,6.50
2022-07-26T05:23:38.031Z,6.60
2022-07-26T05:33:45.228Z,7.50
2022-07-26T05:43:52.882Z,7.90
2022-07-26T05:54:00.148Z,7.10
2022-07-26T06:04:07.298Z,7.70
2022-07-26T06:14:14.990Z,7.90
2022-07-26T06:24:22.470Z,8.10
2022-07-26T06:34:29.754Z,8.40
2022-07-26T06:44:36.965Z,8.80
2022-07-26T06:54:44.086Z,8.70
2022-07-26T07:04:51.522Z,9.30
2022-07-26T07:14:58.726Z,9.70
2022-07-26T07:25:06.448Z,10.50
2022-07-26T07:35:12.654Z,11.40
2022-07-26T07:45:19.011Z,11.20
2022-07-26T07:55:43.840Z,12.90
2022-07-26T08:05:52.423Z,14.30
2022-07-26T08:15:59.314Z,15.90
2022-07-26T08:26:07.147Z,16.30
2022-07-26T08:36:14.704Z,18.40
2022-07-26T08:46:25.341Z,19.20
2022-07-26T08:56:33.913Z,17.20
2022-07-26T09:06:40.987Z,19.20
2022-07-26T09:16:57.735Z,17.80
2022-07-26T09:27:07.179Z,17.40
2022-07-26T09:37:14.520Z,17.70
2022-07-26T09:47:21.805Z,12.10
2022-07-26T09:57:29.126Z,9.60
2022-07-26T10:07:37.933Z,9.20
2022-07-26T10:17:41.972Z,9.20
2022-07-26T10:27:51.843Z,12.00
2022-07-26T10:54:22.364Z,12.30
2022-07-26T11:04:29.522Z,13.00
2022-07-26T11:14:36.640Z,11.70
2022-07-26T11:24:44.344Z,12.20
2022-07-26T11:34:59.134Z,12.00
2022-07-26T11:45:10.719Z,10.40
2022-07-26T11:55:26.347Z,11.40
2022-07-26T12:05:33.616Z,11.60
2022-07-26T12:15:52.880Z,12.10
2022-07-26T12:26:18.962Z,11.40
2022-07-26T12:36:29.064Z,10.70
2022-07-26T12:46:38.250Z,10.40
2022-07-26T12:56:46.486Z,9.90
2022-07-26T13:06:56.339Z,9.20
2022-07-26T13:17:05.022Z,10.80
2022-07-26T13:27:12.313Z,9.30
2022-07-26T13:37:19.407Z,8.70
2022-07-26T13:47:26.370Z,8.70
2022-07-26T13:57:48.039Z,10.40
2022-07-26T14:08:01.260Z,10.30
2022-07-26T14:18:08.760Z,9.30
2022-07-26T14:28:15.134Z,9.60
2022-07-26T14:38:26.797Z,9.50
2022-07-26T14:48:53.639Z,10.50
2022-07-26T14:59:01.798Z,9.50
2022-07-26T15:09:08.998Z,9.90
2022-07-26T15:19:16.169Z,11.30
2022-07-26T15:29:23.734Z,9.10
2022-07-26T17:32:52.129Z,6.50
2022-07-26T17:43:00.751Z,7.20
2022-07-26T17:53:08.130Z,6.50
2022-07-26T18:03:14.473Z,7.70
2022-07-26T18:13:21.895Z,9.10
2022-07-26T18:23:29.089Z,7.30
2022-07-26T18:33:36.219Z,8.00
2022-07-26T18:43:43.355Z,8.50
2022-07-26T18:53:50.495Z,9.50
2022-07-26T19:14:04.292Z,12.40
2022-07-26T19:24:11.573Z,12.60
2022-07-26T19:34:17.703Z,12.60
2022-07-26T19:44:24.915Z,12.70
2022-07-26T19:54:32.035Z,13.70
2022-07-26T20:04:42.899Z,13.20
2022-07-26T20:14:52.994Z,14.00
2022-07-26T20:25:00.873Z,15.50
2022-07-26T20:35:09.368Z,16.00
2022-07-26T20:45:16.524Z,17.10
2022-07-26T20:55:23.217Z,17.70
2022-07-26T21:05:32.764Z,19.90
2022-07-26T21:15:42.271Z,20.40
2022-07-26T21:25:49.553Z,18.30
2022-07-26T21:36:05.677Z,16.80
2022-07-26T21:46:13.734Z,18.00
2022-07-26T21:56:21.168Z,16.40
2022-07-26T22:06:28.604Z,14.50
2022-07-26T22:16:36.031Z,15.90
2022-07-26T22:26:43.413Z,16.30
2022-07-26T22:36:51.063Z,14.00
2022-07-26T22:46:58.272Z,14.90
2022-07-26T22:57:05.519Z,16.10
2022-07-26T23:07:13.044Z,15.90
2022-07-26T23:17:20.781Z,15.40
2022-07-26T23:27:27.993Z,16.20
2022-07-26T23:37:35.127Z,14.50
2022-07-26T23:47:42.595Z,16.00
2022-07-26T23:57:49.772Z,16.60
